Time;durP1;ratioP1;P1;durP2;ratioP2;P2;SDS_P1;SDS_P2;PMS_P1;PMS_P2;Temp;Humidity;BMP_temperature;BMP_pressure;BME280_temperature;BME280_humidity;BME280_pressure;Samples;Min_cycle;Max_cycle;Signal;HPM_P1;HPM_P2
2021/12/07 00:01:22;;;;;;;21.60;15.50;;;2.00;99.90;;;;;;4993272;28;20051;-77
2021/12/07 00:03:49;;;;;;;24.67;16.00;;;1.90;99.90;;;;;;4994872;28;20120;-78
2021/12/07 00:06:15;;;;;;;27.85;15.93;;;1.90;99.90;;;;;;4993141;28;20389;-78
2021/12/07 00:08:42;;;;;;;30.20;17.40;;;1.80;99.90;;;;;;5015305;28;20060;-78
2021/12/07 00:11:09;;;;;;;25.48;15.95;;;1.80;99.90;;;;;;5014263;28;20437;-78
2021/12/07 00:13:38;;;;;;;28.77;16.30;;;1.70;99.90;;;;;;4998586;28;20050;-78
2021/12/07 00:16:05;;;;;;;24.52;15.90;;;2.00;99.90;;;;;;5006909;28;20047;-77
2021/12/07 00:18:31;;;;;;;25.98;16.48;;;1.60;99.90;;;;;;4995836;28;20552;-78
2021/12/07 00:20:57;;;;;;;25.23;16.50;;;1.60;99.90;;;;;;5006520;28;20050;-77
2021/12/07 00:23:23;;;;;;;26.30;17.00;;;1.60;99.90;;;;;;5016222;28;20485;-77
2021/12/07 00:25:49;;;;;;;29.83;17.00;;;1.50;99.90;;;;;;5014136;28;20129;-77
2021/12/07 00:28:18;;;;;;;27.55;16.48;;;1.50;99.90;;;;;;5014931;28;20053;-78
2021/12/07 00:30:44;;;;;;;28.73;17.58;;;1.70;99.90;;;;;;5014724;28;20088;-77
2021/12/07 00:33:19;;;;;;;32.13;18.15;;;1.50;99.90;;;;;;5015171;28;20085;-77
2021/12/07 00:35:45;;;;;;;;;;;1.50;99.90;;;;;;5012422;28;20050;-77
2021/12/07 00:38:19;;;;;;;22.98;15.20;;;1.50;99.90;;;;;;5014056;28;19929;-77
2021/12/07 00:40:46;;;;;;;35.35;17.02;;;1.50;99.90;;;;;;5015834;28;20497;-77
2021/12/07 00:43:13;;;;;;;26.60;17.38;;;1.40;99.90;;;;;;4997850;28;20053;-77
2021/12/07 00:45:42;;;;;;;23.70;15.85;;;1.50;99.90;;;;;;5013527;28;20519;-77
2021/12/07 00:48:08;;;;;;;29.80;17.52;;;1.40;99.90;;;;;;5014789;28;20395;-77
2021/12/07 00:50:36;;;;;;;27.00;16.33;;;2.00;99.90;;;;;;5006420;28;20054;-77
2021/12/07 00:53:05;;;;;;;24.35;16.13;;;1.40;99.90;;;;;;4993996;28;20125;-77
2021/12/07 00:55:35;;;;;;;26.50;16.65;;;1.40;99.90;;;;;;4994979;28;20051;-77
2021/12/07 00:58:06;;;;;;;26.13;16.55;;;1.40;99.90;;;;;;4994944;28;20078;-77
2021/12/07 01:00:32;;;;;;;26.13;16.60;;;1.80;99.90;;;;;;4993915;28;20089;-77
2021/12/07 01:02:58;;;;;;;27.15;15.80;;;1.40;99.90;;;;;;4994912;28;20077;-77
2021/12/07 01:05:30;;;;;;;28.42;15.82;;;1.70;99.90;;;;;;4995710;28;20059;-77
2021/12/07 01:26:54;;;;;;;19.35;13.20;;;1.30;99.90;;;;;;5015203;28;20073;-77
2021/12/07 01:29:23;;;;;;;22.83;14.48;;;1.30;99.90;;;;;;5014186;28;20050;-78
2021/12/07 01:32:22;;;;;;;21.00;13.63;;;1.70;99.90;;;;;;5013705;28;20056;-77
2021/12/07 01:37:29;;;;;;;17.38;11.77;;;2.20;99.90;;;;;;4995170;28;20113;-78
2021/12/07 01:47:48;;;;;;;21.13;13.10;;;1.40;99.90;;;;;;4994016;28;20053;-78
2021/12/07 02:00:45;;;;;;;20.80;12.30;;;1.50;99.90;;;;;;5013213;28;20489;-78
2021/12/07 02:03:11;;;;;;;18.48;11.90;;;1.80;99.90;;;;;;5012249;28;20060;-78
2021/12/07 02:05:37;;;;;;;21.35;12.38;;;1.50;99.90;;;;;;4990263;28;20042;-78
2021/12/07 02:08:03;;;;;;;18.73;12.13;;;1.50;99.90;;;;;;5012999;28;20053;-78
2021/12/07 02:10:31;;;;;;;17.83;11.35;;;1.40;99.90;;;;;;5012123;28;20049;-78
2021/12/07 02:13:03;;;;;;;18.17;12.23;;;2.40;99.90;;;;;;5013051;28;20046;-78
2021/12/07 02:15:32;;;;;;;22.70;12.38;;;1.50;99.90;;;;;;5013023;28;20493;-78
2021/12/07 02:17:58;;;;;;;21.83;12.70;;;1.70;99.90;;;;;;5011964;28;20057;-78
2021/12/07 02:20:27;;;;;;;17.10;11.25;;;1.50;99.90;;;;;;5011507;28;20045;-78
2021/12/07 02:22:54;;;;;;;19.52;12.02;;;1.50;99.90;;;;;;5012788;28;20065;-78
2021/12/07 02:25:20;;;;;;;18.77;12.25;;;1.50;99.90;;;;;;5011234;28;20073;-78
2021/12/07 02:27:48;;;;;;;17.92;12.23;;;1.50;99.90;;;;;;4986514;28;20049;-78
2021/12/07 02:30:19;;;;;;;16.35;11.18;;;2.00;99.90;;;;;;4993421;28;20394;-79
2021/12/07 02:32:46;;;;;;;19.73;12.50;;;2.30;99.90;;;;;;4993596;28;20050;-79
2021/12/07 02:35:21;;;;;;;20.88;12.65;;;1.50;99.90;;;;;;4999114;28;20448;-79
2021/12/07 02:37:46;;;;;;;20.65;11.93;;;1.50;99.90;;;;;;5011847;28;20584;-79
2021/12/07 02:40:12;;;;;;;16.35;11.23;;;1.70;99.90;;;;;;5012516;28;20057;-78
2021/12/07 02:42:39;;;;;;;17.58;11.18;;;1.60;99.90;;;;;;5009133;28;20034;-78
2021/12/07 02:45:06;;;;;;;17.10;11.00;;;1.60;99.90;;;;;;4991912;28;20058;-78
2021/12/07 02:47:36;;;;;;;17.30;10.48;;;1.60;99.90;;;;;;4992744;28;20577;-78
2021/12/07 02:50:04;;;;;;;13.15;9.48;;;1.60;99.90;;;;;;4993760;28;20078;-78
2021/12/07 02:52:30;;;;;;;16.05;11.35;;;1.50;99.90;;;;;;4992209;28;20042;-78
2021/12/07 02:54:56;;;;;;;16.13;10.90;;;1.60;99.90;;;;;;4993895;28;20549;-78
2021/12/07 02:57:22;;;;;;;13.80;10.05;;;2.00;99.90;;;;;;4992911;28;20560;-78
2021/12/07 02:59:57;;;;;;;15.65;10.52;;;1.60;99.90;;;;;;4993287;28;20066;-78
2021/12/07 03:02:24;;;;;;;18.88;11.52;;;1.60;99.90;;;;;;4992918;28;20046;-78
2021/12/07 03:05:00;;;;;;;15.25;10.82;;;1.80;99.90;;;;;;4997815;28;20050;-78
2021/12/07 03:08:04;;;;;;;17.00;11.13;;;1.60;99.90;;;;;;5011574;28;20082;-79
2021/12/07 03:26:40;;;;;;;16.20;10.18;;;1.50;99.90;;;;;;5012318;28;20101;-78
2021/12/07 03:29:06;;;;;;;13.85;10.02;;;1.60;99.90;;;;;;5012077;28;20113;-79
2021/12/07 03:31:32;;;;;;;16.98;11.05;;;1.50;99.90;;;;;;5012174;28;20444;-79
2021/12/07 03:33:59;;;;;;;18.30;11.40;;;1.70;99.90;;;;;;5011078;28;20157;-79
2021/12/07 03:36:27;;;;;;;15.25;9.75;;;1.50;99.90;;;;;;5006389;28;20046;-79
2021/12/07 03:38:53;;;;;;;18.38;10.90;;;1.40;99.90;;;;;;5017165;28;20049;-79
2021/12/07 03:41:20;;;;;;;14.55;9.63;;;1.40;99.90;;;;;;5014875;28;20152;-79
2021/12/07 03:43:47;;;;;;;13.55;9.32;;;1.50;99.90;;;;;;5015596;28;20050;-79
2021/12/07 03:46:13;;;;;;;18.15;11.07;;;1.40;99.90;;;;;;4999403;28;20086;-79
2021/12/07 03:48:41;;;;;;;17.13;10.95;;;1.50;99.90;;;;;;5016066;28;20112;-79
2021/12/07 03:51:06;;;;;;;20.80;10.60;;;1.60;99.90;;;;;;5014402;28;20049;-79
2021/12/07 03:53:33;;;;;;;16.55;10.52;;;1.80;99.90;;;;;;5016519;28;20489;-79
2021/12/07 03:55:59;;;;;;;16.80;10.23;;;1.70;99.90;;;;;;5014879;28;20053;-79
2021/12/07 03:58:26;;;;;;;15.07;9.52;;;1.60;99.90;;;;;;5015675;28;20089;-79
2021/12/07 04:00:51;;;;;;;21.58;11.18;;;1.50;99.90;;;;;;5015552;28;20117;-79
2021/12/07 04:03:19;;;;;;;15.00;11.05;;;1.90;99.90;;;;;;5014499;28;20529;-79
2021/12/07 04:05:54;;;;;;;14.80;10.00;;;1.40;99.90;;;;;;5010499;28;20046;-79
2021/12/07 04:08:23;;;;;;;24.23;10.70;;;1.40;99.90;;;;;;5015610;28;20376;-79
2021/12/07 04:10:49;;;;;;;12.88;9.57;;;1.40;99.90;;;;;;4994591;28;20045;-79
2021/12/07 04:13:15;;;;;;;16.77;10.02;;;1.40;99.90;;;;;;5015130;28;20060;-79
2021/12/07 04:15:43;;;;;;;23.83;11.07;;;1.70;99.90;;;;;;5015108;28;20073;-79
2021/12/07 04:18:09;;;;;;;20.73;9.70;;;1.40;99.90;;;;;;5013967;28;20054;-79
2021/12/07 04:20:36;;;;;;;18.08;9.50;;;1.40;99.90;;;;;;4992553;28;20042;-79
2021/12/07 04:23:03;;;;;;;19.88;9.95;;;1.40;99.90;;;;;;4994544;28;20061;-79
2021/12/07 04:25:29;;;;;;;16.83;10.38;;;1.40;99.90;;;;;;4995349;28;20199;-79
2021/12/07 04:27:55;;;;;;;20.42;10.48;;;1.80;99.90;;;;;;4995467;28;20101;-79
2021/12/07 04:30:24;;;;;;;24.15;10.63;;;1.40;99.90;;;;;;4994641;28;20054;-79
2021/12/07 04:32:51;;;;;;;15.35;9.85;;;1.50;99.90;;;;;;5005034;28;20042;-79
2021/12/07 04:35:18;;;;;;;24.40;10.43;;;1.30;99.90;;;;;;5012267;28;20038;-79
2021/12/07 04:37:45;;;;;;;21.23;11.18;;;1.40;99.90;;;;;;4995634;28;20127;-79
2021/12/07 04:40:15;;;;;;;20.92;10.40;;;1.40;99.90;;;;;;4995233;28;20057;-79
2021/12/07 04:42:41;;;;;;;18.20;10.43;;;1.40;99.90;;;;;;4994903;28;20532;-79
2021/12/07 04:45:11;;;;;;;20.45;10.48;;;1.50;99.90;;;;;;4993994;28;20116;-80
2021/12/07 04:47:50;;;;;;;19.92;9.45;;;1.40;99.90;;;;;;4978003;28;20061;-80
2021/12/07 04:58:27;;;;;;;14.98;9.55;;;1.40;99.90;;;;;;4981216;28;20484;-80
2021/12/07 05:00:53;;;;;;;22.40;9.30;;;1.30;99.90;;;;;;5014372;28;20087;-80
2021/12/07 05:03:20;;;;;;;23.77;11.05;;;1.40;99.90;;;;;;5014149;28;20054;-80
2021/12/07 05:05:49;;;;;;;19.55;10.55;;;1.40;99.90;;;;;;5009001;28;20468;-79
2021/12/07 05:08:28;;;;;;;18.67;9.68;;;1.40;99.90;;;;;;5014418;28;20054;-80
2021/12/07 05:24:06;;;;;;;;;;;1.60;99.90;;;;;;5014371;28;20161;-80
2021/12/07 05:40:29;;;;;;;18.17;8.18;;;2.00;99.90;;;;;;4937631;29;20047;-80
2021/12/07 05:42:56;;;;;;;21.98;9.25;;;1.40;99.90;;;;;;4938410;29;20050;-80
2021/12/07 05:45:27;;;;;;;21.05;9.15;;;1.40;99.90;;;;;;4954884;28;20475;-79
2021/12/07 05:47:53;;;;;;;21.88;9.48;;;1.90;99.90;;;;;;4973515;28;20047;-79
2021/12/07 05:50:23;;;;;;;21.98;8.35;;;1.50;99.90;;;;;;4977808;28;20050;-79
2021/12/07 05:52:49;;;;;;;24.73;9.20;;;1.50;99.90;;;;;;4993298;28;20058;-79
2021/12/07 05:55:16;;;;;;;16.25;8.43;;;1.50;99.90;;;;;;4976710;28;20048;-79
2021/12/07 05:57:42;;;;;;;24.63;9.48;;;1.50;99.90;;;;;;4993526;28;20100;-79
2021/12/07 06:00:11;;;;;;;18.45;9.07;;;2.60;99.90;;;;;;4993361;28;20038;-79
2021/12/07 06:02:37;;;;;;;30.23;11.02;;;1.50;99.90;;;;;;4992595;28;20050;-79
2021/12/07 06:05:03;;;;;;;22.15;8.80;;;1.50;99.90;;;;;;4975736;28;20050;-79
2021/12/07 06:07:29;;;;;;;28.48;8.70;;;1.50;99.90;;;;;;4990732;28;20057;-79
2021/12/07 06:09:55;;;;;;;18.55;7.90;;;1.80;99.90;;;;;;4992807;28;20050;-78
2021/12/07 06:12:21;;;;;;;21.70;10.27;;;1.60;99.90;;;;;;4993339;28;20475;-78
2021/12/07 06:14:46;;;;;;;24.60;9.95;;;1.70;99.90;;;;;;4993354;28;20054;-79
2021/12/07 06:17:13;;;;;;;20.08;10.00;;;1.50;99.90;;;;;;4992898;28;20050;-78
2021/12/07 06:19:39;;;;;;;23.75;10.05;;;1.70;99.90;;;;;;4994539;28;20502;-78
2021/12/07 06:22:06;;;;;;;21.27;7.72;;;1.60;99.90;;;;;;4976785;28;20086;-78
2021/12/07 06:24:33;;;;;;;14.63;8.30;;;1.50;99.90;;;;;;4956818;28;20054;-78
2021/12/07 06:26:59;;;;;;;20.63;8.40;;;1.50;99.90;;;;;;4957515;28;20054;-78
2021/12/07 06:29:25;;;;;;;16.80;7.72;;;1.70;99.90;;;;;;4982732;28;20042;-79
2021/12/07 06:31:53;;;;;;;22.55;8.75;;;2.30;99.90;;;;;;4992314;28;20050;-79
2021/12/07 06:34:20;;;;;;;26.73;9.38;;;1.60;99.90;;;;;;4993087;28;20058;-79
2021/12/07 06:36:46;;;;;;;18.20;7.70;;;1.60;99.90;;;;;;4976968;28;20051;-80
2021/12/07 06:39:11;;;;;;;26.60;7.60;;;1.60;99.90;;;;;;4992922;28;20072;-80
2021/12/07 06:41:37;;;;;;;17.95;7.60;;;2.10;99.90;;;;;;4992849;28;20070;-80
2021/12/07 06:44:04;;;;;;;28.75;7.72;;;1.70;99.90;;;;;;4994788;28;20054;-79
2021/12/07 06:46:30;;;;;;;29.42;7.70;;;1.60;99.90;;;;;;4996244;28;20501;-79
2021/12/07 06:48:56;;;;;;;28.85;8.75;;;1.50;99.90;;;;;;5012581;28;20045;-79
2021/12/07 06:51:22;;;;;;;27.60;8.10;;;1.40;99.90;;;;;;5000309;28;20044;-78
2021/12/07 06:53:48;;;;;;;47.75;11.55;;;2.30;99.90;;;;;;4992788;28;20054;-79
2021/12/07 06:56:14;;;;;;;22.08;9.20;;;1.30;99.90;;;;;;4992997;28;20379;-78
2021/12/07 06:58:39;;;;;;;48.03;12.38;;;1.40;99.90;;;;;;4991828;28;20069;-79
2021/12/07 07:01:08;;;;;;;37.30;10.13;;;1.20;99.90;;;;;;4992791;28;20096;-79
2021/12/07 07:03:34;;;;;;;39.28;9.05;;;1.20;99.90;;;;;;4992757;28;20046;-79
2021/12/07 07:06:01;;;;;;;17.05;6.97;;;1.30;99.90;;;;;;4984780;28;20038;-79
2021/12/07 07:08:26;;;;;;;20.13;7.80;;;1.90;99.90;;;;;;5012506;28;20160;-79
2021/12/07 07:10:52;;;;;;;39.47;10.32;;;1.10;99.90;;;;;;5012691;28;20084;-78
2021/12/07 07:13:18;;;;;;;34.35;8.90;;;1.10;99.90;;;;;;5015623;28;20508;-79
2021/12/07 07:15:44;;;;;;;22.63;7.75;;;1.70;99.90;;;;;;5016266;28;20053;-79
2021/12/07 07:18:10;;;;;;;20.00;7.70;;;1.10;99.90;;;;;;5016587;28;20053;-78
2021/12/07 07:20:36;;;;;;;22.52;8.23;;;1.30;99.90;;;;;;4993260;28;20192;-78
2021/12/07 07:23:03;;;;;;;25.77;7.63;;;1.40;99.90;;;;;;5009386;28;20049;-79
2021/12/07 07:25:29;;;;;;;25.98;7.50;;;1.10;99.90;;;;;;5016255;28;20061;-78
2021/12/07 07:27:55;;;;;;;25.92;7.60;;;1.00;99.90;;;;;;5015161;28;20552;-78
2021/12/07 07:30:21;;;;;;;30.55;8.50;;;1.00;99.90;;;;;;4999948;28;20104;-79
2021/12/07 07:32:48;;;;;;;23.30;7.57;;;1.00;99.90;;;;;;5017189;28;20476;-79
2021/12/07 07:35:15;;;;;;;24.83;8.52;;;1.00;99.90;;;;;;5015495;28;20125;-79
2021/12/07 07:37:42;;;;;;;28.98;8.63;;;1.00;99.90;;;;;;5015861;28;20046;-79
2021/12/07 07:40:11;;;;;;;36.05;10.90;;;1.00;99.90;;;;;;5012626;28;20116;-79
2021/12/07 07:42:37;;;;;;;25.05;9.95;;;1.00;99.90;;;;;;5016039;28;20050;-79
2021/12/07 07:45:04;;;;;;;23.77;8.35;;;1.00;99.90;;;;;;5015307;28;20446;-79
2021/12/07 07:47:30;;;;;;;29.30;12.93;;;1.10;99.90;;;;;;5015004;28;20045;-79
2021/12/07 07:49:56;;;;;;;24.65;8.25;;;1.20;99.90;;;;;;5015900;28;20081;-79
2021/12/07 07:52:22;;;;;;;26.13;9.48;;;1.20;99.90;;;;;;5015594;28;20046;-79
2021/12/07 07:54:50;;;;;;;24.08;8.93;;;1.40;99.90;;;;;;4995443;28;20413;-79
2021/12/07 07:57:15;;;;;;;27.08;8.98;;;1.30;99.90;;;;;;5013459;28;20038;-79
2021/12/07 07:59:41;;;;;;;28.58;7.60;;;1.40;99.90;;;;;;4996510;28;20049;-79
2021/12/07 08:02:08;;;;;;;26.35;7.28;;;1.30;99.90;;;;;;4980344;28;20086;-79
2021/12/07 08:04:34;;;;;;;29.48;6.10;;;1.50;99.90;;;;;;4995574;28;20046;-79
2021/12/07 08:07:00;;;;;;;20.70;6.55;;;1.20;99.90;;;;;;4991979;28;20140;-79
2021/12/07 08:09:26;;;;;;;22.35;6.72;;;1.20;99.90;;;;;;5007175;28;20406;-79
2021/12/07 08:11:52;;;;;;;19.38;6.03;;;1.30;99.90;;;;;;4995555;28;20050;-79
2021/12/07 08:14:18;;;;;;;23.05;5.97;;;1.40;99.90;;;;;;4979061;28;20061;-79
2021/12/07 08:16:46;;;;;;;23.65;6.05;;;1.30;99.90;;;;;;4994704;28;20057;-79
2021/12/07 08:19:12;;;;;;;33.60;6.88;;;1.30;99.90;;;;;;5015718;28;20049;-79
2021/12/07 08:21:38;;;;;;;21.83;6.25;;;1.30;99.90;;;;;;5015412;28;20104;-78
2021/12/07 08:24:04;;;;;;;20.55;7.00;;;1.30;99.90;;;;;;5007893;28;20367;-79
2021/12/07 08:26:31;;;;;;;24.60;6.03;;;1.30;99.90;;;;;;4995081;28;20129;-80
2021/12/07 08:28:58;;;;;;;28.15;6.20;;;1.30;99.90;;;;;;4979225;28;20051;-79
2021/12/07 08:31:26;;;;;;;29.00;6.85;;;1.40;99.90;;;;;;4994520;28;20101;-79
2021/12/07 08:33:52;;;;;;;25.23;6.95;;;1.50;99.90;;;;;;4994890;28;20109;-79
2021/12/07 08:36:19;;;;;;;25.00;6.50;;;1.70;99.90;;;;;;4994394;28;20050;-79
2021/12/07 08:38:46;;;;;;;18.05;5.88;;;1.40;99.90;;;;;;4997488;28;20053;-79
2021/12/07 08:41:13;;;;;;;23.92;6.40;;;1.40;99.90;;;;;;5007496;28;20398;-79
2021/12/07 08:43:41;;;;;;;14.32;5.20;;;1.50;99.90;;;;;;4994355;28;20050;-79
2021/12/07 08:46:09;;;;;;;30.45;7.70;;;1.70;99.90;;;;;;4994632;28;20054;-79
2021/12/07 08:48:35;;;;;;;30.02;6.68;;;1.50;99.90;;;;;;4995052;28;20058;-79
2021/12/07 08:51:03;;;;;;;27.05;6.35;;;1.70;99.90;;;;;;4994154;28;20054;-78
2021/12/07 08:53:29;;;;;;;27.48;6.35;;;1.50;99.90;;;;;;5019926;28;20049;-79
2021/12/07 09:01:31;;;;;;;26.25;5.88;;;1.70;99.90;;;;;;4995788;28;20046;-78
2021/12/07 09:03:58;;;;;;;39.35;6.97;;;1.70;99.90;;;;;;4978145;28;20046;-79
2021/12/07 09:06:25;;;;;;;25.38;6.30;;;1.70;99.90;;;;;;5003056;28;20038;-79
2021/12/07 09:08:52;;;;;;;35.10;5.78;;;1.70;99.90;;;;;;5010177;28;20046;-79
2021/12/07 09:11:18;;;;;;;24.70;5.15;;;1.80;99.90;;;;;;4994159;28;20046;-79
2021/12/07 09:13:45;;;;;;;23.85;6.28;;;1.80;99.90;;;;;;5000127;28;20042;-79
2021/12/07 09:16:14;;;;;;;39.13;5.85;;;1.90;99.90;;;;;;5014077;28;20077;-79
2021/12/07 09:18:41;;;;;;;21.50;5.45;;;1.90;99.90;;;;;;5011510;28;20627;-78
2021/12/07 09:21:08;;;;;;;23.13;6.60;;;2.00;99.90;;;;;;5013712;28;20045;-79
2021/12/07 09:23:34;;;;;;;28.40;6.20;;;2.10;99.90;;;;;;5013742;28;20516;-79
2021/12/07 09:26:00;;;;;;;27.13;6.20;;;2.20;99.90;;;;;;5012765;28;20144;-78
2021/12/07 09:28:26;;;;;;;28.00;6.18;;;2.20;99.90;;;;;;4996592;28;20042;-79
2021/12/07 09:30:55;;;;;;;24.13;6.63;;;2.60;99.90;;;;;;5012100;28;20038;-79
2021/12/07 09:33:27;;;;;;;21.30;5.72;;;2.30;99.90;;;;;;4995623;28;20147;-79
2021/12/07 09:35:54;;;;;;;23.55;5.55;;;2.40;99.90;;;;;;4996458;28;20498;-79
2021/12/07 09:38:22;;;;;;;19.95;6.05;;;2.70;99.90;;;;;;5014719;28;20050;-78
2021/12/07 09:40:48;;;;;;;26.73;5.63;;;2.50;99.90;;;;;;5006041;28;20105;-79
2021/12/07 09:43:14;;;;;;;23.13;4.75;;;2.60;99.90;;;;;;5009499;28;20122;-78
2021/12/07 09:45:43;;;;;;;27.77;4.95;;;2.60;99.90;;;;;;5013232;28;20057;-78
2021/12/07 09:48:10;;;;;;;33.13;7.40;;;2.60;99.90;;;;;;5012427;28;20050;-78
2021/12/07 09:50:38;;;;;;;15.55;4.95;;;2.60;99.90;;;;;;5013336;28;20057;-78
2021/12/07 09:53:07;;;;;;;23.65;5.20;;;2.70;99.90;;;;;;5013127;28;20493;-78
2021/12/07 09:55:35;;;;;;;18.38;4.93;;;2.70;99.90;;;;;;4990213;28;20069;-78
2021/12/07 09:58:02;;;;;;;18.00;4.60;;;2.70;99.90;;;;;;5011313;28;20048;-78
2021/12/07 10:00:28;;;;;;;29.88;5.32;;;2.70;99.90;;;;;;4996779;28;20042;-78
2021/12/07 10:02:54;;;;;;;23.55;5.28;;;2.70;99.90;;;;;;5012290;28;20048;-78
2021/12/07 10:05:22;;;;;;;20.00;5.15;;;2.70;99.90;;;;;;5012993;28;20050;-78
2021/12/07 10:07:49;;;;;;;20.13;4.38;;;2.70;99.90;;;;;;5011932;28;20501;-78
2021/12/07 10:10:24;;;;;;;19.77;5.35;;;2.80;99.90;;;;;;5012687;28;20096;-78
2021/12/07 10:12:50;;;;;;;20.58;4.68;;;2.90;99.90;;;;;;5013019;28;20053;-78
2021/12/07 10:15:17;;;;;;;20.40;5.03;;;2.80;99.90;;;;;;5013276;28;20057;-78
2021/12/07 10:17:43;;;;;;;20.10;5.43;;;2.80;99.90;;;;;;5012554;28;20045;-79
2021/12/07 10:20:33;;;;;;;17.20;4.15;;;2.90;99.90;;;;;;5000546;28;20091;-79
2021/12/07 10:23:20;;;;;;;23.60;3.63;;;3.00;99.90;;;;;;4993701;28;20085;-78
2021/12/07 10:25:55;;;;;;;28.95;5.00;;;3.00;99.90;;;;;;4993332;28;20462;-78
2021/12/07 10:28:42;;;;;;;26.27;5.40;;;3.10;99.90;;;;;;4993503;28;20050;-78
2021/12/07 10:31:10;;;;;;;23.00;4.75;;;3.20;99.90;;;;;;4994396;28;20584;-78
2021/12/07 10:33:43;;;;;;;16.67;5.03;;;3.30;99.90;;;;;;4992767;28;20517;-78
2021/12/07 10:36:20;;;;;;;24.30;5.13;;;3.30;99.90;;;;;;4976223;28;20515;-78
2021/12/07 10:38:57;;;;;;;15.80;4.72;;;3.50;99.90;;;;;;4995739;28;20050;-78
2021/12/07 10:41:25;;;;;;;15.85;4.57;;;3.60;99.90;;;;;;5012269;28;20108;-78
2021/12/07 10:44:02;;;;;;;22.73;4.78;;;3.70;99.90;;;;;;5011511;28;20057;-79
2021/12/07 10:46:32;;;;;;;20.25;5.22;;;3.80;99.90;;;;;;5011436;28;20532;-78
2021/12/07 10:49:20;;;;;;;29.33;7.55;;;3.90;99.90;;;;;;4996250;28;20064;-77
2021/12/07 10:51:59;;;;;;;24.67;5.40;;;4.00;99.90;;;;;;5011772;28;20049;-78
2021/12/07 10:54:27;;;;;;;15.85;4.90;;;4.00;99.90;;;;;;5003894;28;20058;-78
2021/12/07 10:56:53;;;;;;;18.92;5.53;;;4.10;99.90;;;;;;4991778;28;20055;-78
2021/12/07 10:59:19;;;;;;;22.30;5.53;;;4.10;99.90;;;;;;4992768;28;20061;-78
2021/12/07 11:01:49;;;;;;;22.15;5.72;;;4.20;99.90;;;;;;4992766;28;20042;-78
2021/12/07 11:04:35;;;;;;;11.60;3.83;;;4.30;99.90;;;;;;5011406;28;20049;-78
2021/12/07 11:07:29;;;;;;;13.88;3.80;;;4.30;99.90;;;;;;5013433;28;20379;-78
2021/12/07 11:10:16;;;;;;;12.63;4.03;;;4.40;99.90;;;;;;4999714;28;20560;-78
2021/12/07 11:13:05;;;;;;;17.23;4.38;;;4.50;99.90;;;;;;4991783;28;20053;-78
2021/12/07 11:15:33;;;;;;;13.20;3.72;;;4.50;99.90;;;;;;4993971;28;20133;-78
2021/12/07 11:18:10;;;;;;;12.30;3.42;;;4.60;99.90;;;;;;4991923;28;20069;-78
2021/12/07 11:20:38;;;;;;;12.57;3.03;;;4.60;99.90;;;;;;4993918;28;20050;-78
2021/12/07 11:23:23;;;;;;;23.60;5.18;;;4.70;99.90;;;;;;4993684;28;20568;-77
2021/12/07 11:29:39;;;;;;;18.05;4.45;;;4.80;99.90;;;;;;5012080;28;20074;-78
2021/12/07 11:31:50;;;;;;;19.88;3.38;;;4.90;99.90;;;;;;4993845;28;20463;-78
2021/12/07 11:34:29;;;;;;;14.95;3.70;;;4.90;99.90;;;;;;4991605;28;20101;-79
2021/12/07 11:37:01;;;;;;;12.57;3.38;;;5.00;99.90;;;;;;4976034;28;20042;-79
2021/12/07 11:39:37;;;;;;;16.40;3.05;;;5.10;99.90;;;;;;5001019;28;20096;-79
2021/12/07 11:42:11;;;;;;;27.83;3.75;;;5.10;99.90;;;;;;5012104;28;20057;-79
2021/12/07 11:44:51;;;;;;;15.85;2.65;;;5.20;99.90;;;;;;5011565;28;20108;-79
2021/12/07 11:47:25;;;;;;;16.48;3.60;;;5.30;99.90;;;;;;5009708;28;20050;-78
2021/12/07 11:49:51;;;;;;;14.60;3.42;;;5.30;99.90;;;;;;5003929;28;20438;-78
2021/12/07 11:52:17;;;;;;;15.23;3.50;;;5.30;99.90;;;;;;4975734;28;20047;-78
2021/12/07 11:54:43;;;;;;;20.02;3.83;;;5.30;99.90;;;;;;5001428;28;20500;-78
2021/12/07 11:57:14;;;;;;;13.63;3.15;;;5.30;99.90;;;;;;5013465;28;20052;-78
2021/12/07 11:59:40;;;;;;;15.88;4.38;;;5.40;99.90;;;;;;5015270;28;20547;-78
2021/12/07 12:02:06;;;;;;;16.23;3.05;;;5.50;99.90;;;;;;5014567;28;20080;-78
2021/12/07 12:04:32;;;;;;;18.20;3.42;;;5.60;99.90;;;;;;5015429;28;20046;-78
2021/12/07 12:06:59;;;;;;;16.08;3.67;;;5.70;99.90;;;;;;5016562;28;20084;-78
2021/12/07 12:09:26;;;;;;;19.42;3.65;;;5.70;99.90;;;;;;5011344;28;20042;-78
2021/12/07 12:11:57;;;;;;;14.98;4.20;;;5.70;99.90;;;;;;5015239;28;20389;-79
2021/12/07 12:14:57;;;;;;;21.95;4.70;;;5.70;99.90;;;;;;5014124;28;20100;-78
2021/12/07 12:17:52;;;;;;;22.20;6.00;;;5.70;99.90;;;;;;5015198;28;20062;-78
2021/12/07 12:20:24;;;;;;;14.65;3.47;;;5.70;99.90;;;;;;5014998;28;20064;-78
2021/12/07 12:23:15;;;;;;;11.73;3.83;;;5.70;99.90;;;;;;5015321;28;20382;-77
2021/12/07 12:25:41;;;;;;;19.27;4.15;;;5.70;99.90;;;;;;4996375;28;20109;-78
2021/12/07 12:28:07;;;;;;;19.23;4.25;;;5.70;99.90;;;;;;5009598;28;20058;-78
2021/12/07 12:30:39;;;;;;;21.10;4.35;;;5.70;99.90;;;;;;4997643;28;20121;-79
2021/12/07 12:33:08;;;;;;;15.43;3.58;;;5.70;99.90;;;;;;5013944;28;20045;-78
2021/12/07 12:35:40;;;;;;;19.88;4.15;;;5.70;99.90;;;;;;5013836;28;20104;-79
2021/12/07 12:38:23;;;;;;;21.42;4.88;;;5.70;99.90;;;;;;4994801;28;20103;-79
2021/12/07 12:41:02;;;;;;;14.73;3.92;;;5.70;99.90;;;;;;5013924;28;20054;-79
2021/12/07 12:43:39;;;;;;;13.93;4.10;;;5.70;99.90;;;;;;5013904;28;20081;-79
2021/12/07 12:46:04;;;;;;;11.45;4.22;;;5.70;99.90;;;;;;5014249;28;20061;-79
2021/12/07 12:48:32;;;;;;;22.13;3.20;;;5.70;99.90;;;;;;4998155;28;20133;-78
2021/12/07 12:50:58;;;;;;;14.85;2.97;;;5.70;99.90;;;;;;5013595;28;20057;-79
2021/12/07 12:53:30;;;;;;;12.45;3.20;;;5.70;99.90;;;;;;4997745;28;20041;-79
2021/12/07 12:55:59;;;;;;;19.52;4.07;;;5.80;99.90;;;;;;5008322;28;20038;-79
2021/12/07 12:58:31;;;;;;;14.50;3.92;;;5.80;99.90;;;;;;4993872;28;20050;-78
2021/12/07 13:01:03;;;;;;;16.55;3.55;;;5.80;99.90;;;;;;4994829;28;20446;-79
2021/12/07 13:03:53;;;;;;;15.10;4.18;;;5.80;99.90;;;;;;4994099;28;20093;-79
2021/12/07 13:06:50;;;;;;;22.35;4.80;;;5.80;99.90;;;;;;5002280;28;20405;-79
2021/12/07 13:09:19;;;;;;;14.32;3.70;;;5.80;99.90;;;;;;5006505;28;20093;-79
2021/12/07 13:12:05;;;;;;;15.60;4.22;;;5.80;99.90;;;;;;4994682;28;20047;-79
2021/12/07 13:14:37;;;;;;;18.75;5.95;;;5.90;99.90;;;;;;4994259;28;20058;-79
2021/12/07 13:17:13;;;;;;;12.05;4.43;;;5.90;99.90;;;;;;5004570;28;20045;-78
2021/12/07 13:20:07;;;;;;;23.88;4.20;;;5.90;99.90;;;;;;5013763;28;20054;-78
2021/12/07 13:23:11;;;;;;;17.23;4.95;;;5.80;99.90;;;;;;5014090;28;20053;-79
2021/12/07 13:25:39;;;;;;;17.23;3.97;;;5.80;99.90;;;;;;5011765;28;20100;-79
2021/12/07 13:28:24;;;;;;;16.70;3.40;;;5.80;99.90;;;;;;5013787;28;20107;-79
2021/12/07 13:31:11;;;;;;;12.43;2.70;;;5.80;99.90;;;;;;4997308;28;20605;-79
2021/12/07 13:33:48;;;;;;;24.00;4.20;;;5.70;99.90;;;;;;5012837;28;20053;-79
2021/12/07 13:36:39;;;;;;;19.27;4.28;;;5.70;99.90;;;;;;5013810;28;20046;-79
2021/12/07 13:39:07;;;;;;;14.50;4.40;;;5.70;99.90;;;;;;5005500;28;20061;-79
2021/12/07 13:41:34;;;;;;;11.57;3.20;;;5.60;99.90;;;;;;5014595;28;20072;-79
2021/12/07 13:44:00;;;;;;;16.52;3.63;;;5.60;99.90;;;;;;5012200;28;20093;-79
2021/12/07 13:46:28;;;;;;;19.70;4.22;;;5.60;99.90;;;;;;4993029;28;20085;-78
2021/12/07 13:49:11;;;;;;;13.27;3.88;;;5.50;99.90;;;;;;4977736;28;20069;-79
2021/12/07 13:51:38;;;;;;;13.57;4.32;;;5.50;99.90;;;;;;4994068;28;20393;-79
2021/12/07 13:54:13;;;;;;;17.50;4.15;;;5.40;99.90;;;;;;4997942;28;20107;-79
2021/12/07 13:56:40;;;;;;;14.75;4.00;;;5.40;99.90;;;;;;4993790;28;20048;-79
2021/12/07 13:59:09;;;;;;;19.42;3.85;;;5.40;99.90;;;;;;4998685;28;20098;-79
2021/12/07 14:01:37;;;;;;;16.88;4.45;;;5.30;99.90;;;;;;5012288;28;20038;-79
2021/12/07 14:04:04;;;;;;;25.83;4.30;;;5.30;99.90;;;;;;5013416;28;20100;-79
2021/12/07 14:06:31;;;;;;;14.95;3.95;;;5.20;99.90;;;;;;5008190;28;20108;-79
2021/12/07 14:09:09;;;;;;;21.60;3.90;;;5.20;99.90;;;;;;4980406;28;20042;-79
2021/12/07 14:11:37;;;;;;;12.93;3.63;;;5.20;99.90;;;;;;5012931;28;20053;-79
2021/12/07 14:14:11;;;;;;;21.13;5.88;;;5.10;99.90;;;;;;5011980;28;20518;-79
2021/12/07 14:16:39;;;;;;;15.20;3.97;;;5.10;99.90;;;;;;5013148;28;20088;-79
2021/12/07 14:19:05;;;;;;;16.05;3.67;;;5.00;99.90;;;;;;5012893;28;20048;-79
2021/12/07 14:21:31;;;;;;;15.23;4.47;;;5.00;99.90;;;;;;4995845;28;20049;-79
2021/12/07 14:24:04;;;;;;;18.20;3.55;;;5.00;99.90;;;;;;5008311;28;20438;-79
2021/12/07 14:26:36;;;;;;;18.35;4.35;;;4.90;99.90;;;;;;4992982;28;20042;-78
2021/12/07 14:29:14;;;;;;;16.48;4.40;;;4.90;99.90;;;;;;4992421;28;20401;-79
2021/12/07 14:31:51;;;;;;;18.52;4.60;;;4.90;99.90;;;;;;4976787;28;20150;-79
2021/12/07 14:34:26;;;;;;;17.30;4.28;;;4.80;99.90;;;;;;4993020;28;20046;-79
2021/12/07 14:37:07;;;;;;;15.48;4.70;;;4.80;99.90;;;;;;5002374;28;20090;-79
2021/12/07 14:39:39;;;;;;;17.40;4.80;;;4.70;99.90;;;;;;5009622;28;20564;-79